sensor_id;sensor_type;location;lat;lon;timestamp;pressure;altitude;pressure_sealevel;temperature;humidity
31873;BME280;22407;42.820;23.374;2024-03-06T00:01:49;95498.59;;;1.70;97.35
31873;BME280;22407;42.820;23.374;2024-03-06T00:04:14;95501.13;;;1.86;96.81
31873;BME280;22407;42.820;23.374;2024-03-06T00:06:40;95504.56;;;1.77;96.39
31873;BME280;22407;42.820;23.374;2024-03-06T00:09:05;95507.63;;;1.64;96.55
31873;BME280;22407;42.820;23.374;2024-03-06T00:11:33;95506.59;;;1.70;96.88
31873;BME280;22407;42.820;23.374;2024-03-06T00:14:02;95505.19;;;1.58;97.26
31873;BME280;22407;42.820;23.374;2024-03-06T00:16:28;95506.91;;;1.42;97.36
31873;BME280;22407;42.820;23.374;2024-03-06T00:18:53;95500.31;;;1.50;97.50
31873;BME280;22407;42.820;23.374;2024-03-06T00:21:19;95501.59;;;1.73;96.65
31873;BME280;22407;42.820;23.374;2024-03-06T00:23:44;95512.06;;;1.85;95.89
31873;BME280;22407;42.820;23.374;2024-03-06T00:26:11;95496.88;;;1.54;96.71
31873;BME280;22407;42.820;23.374;2024-03-06T00:28:38;95503.59;;;1.30;96.94
31873;BME280;22407;42.820;23.374;2024-03-06T00:31:05;95501.50;;;1.32;98.93
31873;BME280;22407;42.820;23.374;2024-03-06T00:33:30;95505.75;;;1.60;97.68
31873;BME280;22407;42.820;23.374;2024-03-06T00:35:56;95504.75;;;1.70;96.72
31873;BME280;22407;42.820;23.374;2024-03-06T00:38:21;95507.25;;;1.82;96.04
31873;BME280;22407;42.820;23.374;2024-03-06T00:40:47;95496.06;;;1.85;96.71
31873;BME280;22407;42.820;23.374;2024-03-06T00:43:12;95492.53;;;1.74;97.15
31873;BME280;22407;42.820;23.374;2024-03-06T00:45:38;95499.56;;;1.54;98.21
31873;BME280;22407;42.820;23.374;2024-03-06T00:48:04;95498.72;;;1.49;98.30
31873;BME280;22407;42.820;23.374;2024-03-06T00:50:29;95505.31;;;1.41;98.41
31873;BME280;22407;42.820;23.374;2024-03-06T00:52:55;95504.56;;;1.77;96.40
31873;BME280;22407;42.820;23.374;2024-03-06T00:55:20;95496.56;;;1.82;95.81
31873;BME280;22407;42.820;23.374;2024-03-06T00:57:46;95506.94;;;1.78;96.10
31873;BME280;22407;42.820;23.374;2024-03-06T01:00:11;95502.72;;;1.51;97.48
31873;BME280;22407;42.820;23.374;2024-03-06T01:02:37;95501.94;;;1.19;96.90
31873;BME280;22407;42.820;23.374;2024-03-06T01:05:04;95496.88;;;0.96;98.42
31873;BME280;22407;42.820;23.374;2024-03-06T01:07:30;95508.41;;;1.02;99.92
31873;BME280;22407;42.820;23.374;2024-03-06T01:09:59;95505.78;;;1.33;98.72
31873;BME280;22407;42.820;23.374;2024-03-06T01:12:25;95506.63;;;1.12;98.90
31873;BME280;22407;42.820;23.374;2024-03-06T01:14:50;95512.06;;;1.22;99.47
31873;BME280;22407;42.820;23.374;2024-03-06T01:17:16;95509.47;;;1.27;99.61
31873;BME280;22407;42.820;23.374;2024-03-06T01:19:41;95512.25;;;1.16;98.73
31873;BME280;22407;42.820;23.374;2024-03-06T01:22:10;95510.81;;;1.03;99.96
31873;BME280;22407;42.820;23.374;2024-03-06T01:24:36;95519.31;;;1.27;99.24
31873;BME280;22407;42.820;23.374;2024-03-06T01:27:01;95525.56;;;1.37;97.10
31873;BME280;22407;42.820;23.374;2024-03-06T01:29:31;95528.53;;;1.46;97.49
31873;BME280;22407;42.820;23.374;2024-03-06T01:31:56;95531.13;;;1.36;97.51
31873;BME280;22407;42.820;23.374;2024-03-06T01:34:22;95528.09;;;1.54;96.98
31873;BME280;22407;42.820;23.374;2024-03-06T01:36:48;95537.75;;;1.33;97.34
31873;BME280;22407;42.820;23.374;2024-03-06T01:39:13;95542.75;;;0.98;98.31
31873;BME280;22407;42.820;23.374;2024-03-06T01:41:46;95540.13;;;1.03;99.04
31873;BME280;22407;42.820;23.374;2024-03-06T01:44:12;95535.41;;;1.10;98.67
31873;BME280;22407;42.820;23.374;2024-03-06T01:46:38;95529.63;;;1.18;97.06
31873;BME280;22407;42.820;23.374;2024-03-06T01:49:04;95537.22;;;1.31;95.77
31873;BME280;22407;42.820;23.374;2024-03-06T01:51:30;95534.69;;;0.93;96.75
31873;BME280;22407;42.820;23.374;2024-03-06T01:53:56;95525.56;;;0.63;97.89
31873;BME280;22407;42.820;23.374;2024-03-06T01:56:22;95530.41;;;0.92;96.89
31873;BME280;22407;42.820;23.374;2024-03-06T01:58:48;95532.09;;;0.77;97.71
31873;BME280;22407;42.820;23.374;2024-03-06T02:01:15;95521.97;;;0.74;98.10
31873;BME280;22407;42.820;23.374;2024-03-06T02:03:42;95522.59;;;0.86;98.47
31873;BME280;22407;42.820;23.374;2024-03-06T02:06:09;95522.31;;;0.82;98.26
31873;BME280;22407;42.820;23.374;2024-03-06T02:08:35;95525.72;;;0.78;98.70
31873;BME280;22407;42.820;23.374;2024-03-06T02:11:03;95535.00;;;0.97;98.56
31873;BME280;22407;42.820;23.374;2024-03-06T02:13:30;95532.66;;;0.79;99.33
31873;BME280;22407;42.820;23.374;2024-03-06T02:15:55;95541.69;;;0.78;99.69
31873;BME280;22407;42.820;23.374;2024-03-06T02:18:24;95538.84;;;0.84;99.64
31873;BME280;22407;42.820;23.374;2024-03-06T02:20:50;95540.47;;;0.64;99.52
31873;BME280;22407;42.820;23.374;2024-03-06T02:23:16;95550.28;;;0.59;99.55
31873;BME280;22407;42.820;23.374;2024-03-06T02:25:44;95546.59;;;0.43;99.64
31873;BME280;22407;42.820;23.374;2024-03-06T02:28:11;95549.56;;;0.68;98.96
31873;BME280;22407;42.820;23.374;2024-03-06T02:30:37;95554.94;;;0.94;98.40
31873;BME280;22407;42.820;23.374;2024-03-06T02:33:03;95560.25;;;0.89;98.65
31873;BME280;22407;42.820;23.374;2024-03-06T02:35:30;95555.50;;;0.75;98.02
31873;BME280;22407;42.820;23.374;2024-03-06T02:37:55;95556.81;;;0.73;98.66
31873;BME280;22407;42.820;23.374;2024-03-06T02:40:24;95556.06;;;0.77;98.46
31873;BME280;22407;42.820;23.374;2024-03-06T02:42:49;95558.66;;;0.93;97.21
31873;BME280;22407;42.820;23.374;2024-03-06T02:45:15;95556.72;;;0.84;97.65
31873;BME280;22407;42.820;23.374;2024-03-06T02:47:41;95553.28;;;0.88;98.13
31873;BME280;22407;42.820;23.374;2024-03-06T02:50:06;95556.63;;;0.58;98.60
31873;BME280;22407;42.820;23.374;2024-03-06T02:52:32;95559.34;;;0.41;98.70
31873;BME280;22407;42.820;23.374;2024-03-06T02:54:58;95550.88;;;0.44;98.60
31873;BME280;22407;42.820;23.374;2024-03-06T02:57:27;95557.47;;;0.42;99.88
31873;BME280;22407;42.820;23.374;2024-03-06T02:59:53;95557.56;;;0.68;97.77
31873;BME280;22407;42.820;23.374;2024-03-06T03:02:19;95568.09;;;0.58;98.32
31873;BME280;22407;42.820;23.374;2024-03-06T03:04:44;95561.53;;;0.66;98.11
31873;BME280;22407;42.820;23.374;2024-03-06T03:07:10;95545.56;;;0.66;97.01
31873;BME280;22407;42.820;23.374;2024-03-06T03:09:35;95552.16;;;0.42;98.07
31873;BME280;22407;42.820;23.374;2024-03-06T03:12:01;95545.59;;;0.28;97.66
31873;BME280;22407;42.820;23.374;2024-03-06T03:14:27;95555.59;;;0.21;98.21
31873;BME280;22407;42.820;23.374;2024-03-06T03:16:52;95559.38;;;0.25;97.95
31873;BME280;22407;42.820;23.374;2024-03-06T03:19:19;95561.59;;;0.49;96.77
31873;BME280;22407;42.820;23.374;2024-03-06T03:21:45;95558.63;;;0.08;97.91
31873;BME280;22407;42.820;23.374;2024-03-06T03:24:10;95562.88;;;0.09;98.38
31873;BME280;22407;42.820;23.374;2024-03-06T03:26:36;95559.81;;;0.17;98.43
31873;BME280;22407;42.820;23.374;2024-03-06T03:29:02;95552.00;;;-0.06;99.07
31873;BME280;22407;42.820;23.374;2024-03-06T03:31:28;95559.50;;;-0.03;99.60
31873;BME280;22407;42.820;23.374;2024-03-06T03:33:57;95555.66;;;0.04;100.00
31873;BME280;22407;42.820;23.374;2024-03-06T03:36:23;95557.88;;;0.12;100.00
31873;BME280;22407;42.820;23.374;2024-03-06T03:38:50;95567.06;;;0.05;100.00
31873;BME280;22407;42.820;23.374;2024-03-06T03:41:15;95569.16;;;0.03;100.00
31873;BME280;22407;42.820;23.374;2024-03-06T03:43:45;95563.03;;;0.19;100.00
31873;BME280;22407;42.820;23.374;2024-03-06T03:46:10;95574.72;;;0.56;98.81
31873;BME280;22407;42.820;23.374;2024-03-06T03:48:36;95574.03;;;0.44;98.07
31873;BME280;22407;42.820;23.374;2024-03-06T03:51:02;95577.03;;;0.69;97.77
31873;BME280;22407;42.820;23.374;2024-03-06T03:53:35;95584.38;;;0.62;98.39
31873;BME280;22407;42.820;23.374;2024-03-06T03:56:01;95577.09;;;0.36;99.31
31873;BME280;22407;42.820;23.374;2024-03-06T03:58:27;95583.97;;;0.32;99.62
31873;BME280;22407;42.820;23.374;2024-03-06T04:00:52;95589.72;;;0.45;100.00
31873;BME280;22407;42.820;23.374;2024-03-06T04:03:20;95593.69;;;0.43;100.00
31873;BME280;22407;42.820;23.374;2024-03-06T04:05:47;95587.03;;;0.62;100.00
31873;BME280;22407;42.820;23.374;2024-03-06T04:08:12;95583.41;;;0.68;99.64
31873;BME280;22407;42.820;23.374;2024-03-06T04:10:38;95587.13;;;0.67;99.50
31873;BME280;22407;42.820;23.374;2024-03-06T04:13:04;95591.38;;;0.68;98.91
31873;BME280;22407;42.820;23.374;2024-03-06T04:15:29;95589.47;;;0.63;99.51
31873;BME280;22407;42.820;23.374;2024-03-06T04:17:56;95594.06;;;0.68;99.08
31873;BME280;22407;42.820;23.374;2024-03-06T04:20:21;95604.22;;;0.33;99.46
31873;BME280;22407;42.820;23.374;2024-03-06T04:22:47;95606.50;;;0.08;100.00
31873;BME280;22407;42.820;23.374;2024-03-06T04:25:15;95593.69;;;0.05;100.00
31873;BME280;22407;42.820;23.374;2024-03-06T04:27:41;95600.94;;;0.09;100.00
31873;BME280;22407;42.820;23.374;2024-03-06T04:30:07;95614.00;;;-0.05;100.00
31873;BME280;22407;42.820;23.374;2024-03-06T04:32:32;95608.66;;;0.11;100.00
31873;BME280;22407;42.820;23.374;2024-03-06T04:34:58;95617.22;;;-0.20;100.00
31873;BME280;22407;42.820;23.374;2024-03-06T04:37:24;95626.72;;;-0.24;100.00
31873;BME280;22407;42.820;23.374;2024-03-06T04:39:51;95626.91;;;0.19;100.00
31873;BME280;22407;42.820;23.374;2024-03-06T04:42:18;95630.28;;;-0.02;100.00
31873;BME280;22407;42.820;23.374;2024-03-06T04:44:45;95630.94;;;0.05;100.00
31873;BME280;22407;42.820;23.374;2024-03-06T04:47:11;95629.78;;;0.34;100.00
31873;BME280;22407;42.820;23.374;2024-03-06T04:49:36;95633.03;;;0.19;100.00
31873;BME280;22407;42.820;23.374;2024-03-06T04:52:02;95631.66;;;0.17;100.00
31873;BME280;22407;42.820;23.374;2024-03-06T04:54:29;95636.22;;;0.54;100.00
31873;BME280;22407;42.820;23.374;2024-03-06T04:56:55;95628.88;;;0.45;100.00
31873;BME280;22407;42.820;23.374;2024-03-06T04:59:20;95636.81;;;0.40;100.00
31873;BME280;22407;42.820;23.374;2024-03-06T05:01:46;95635.09;;;0.50;100.00
31873;BME280;22407;42.820;23.374;2024-03-06T05:04:12;95639.22;;;0.25;100.00
31873;BME280;22407;42.820;23.374;2024-03-06T05:06:37;95629.75;;;0.50;100.00
31873;BME280;22407;42.820;23.374;2024-03-06T05:09:03;95628.47;;;0.36;100.00
31873;BME280;22407;42.820;23.374;2024-03-06T05:11:30;95623.50;;;0.40;100.00
31873;BME280;22407;42.820;23.374;2024-03-06T05:14:00;95630.91;;;0.38;100.00
31873;BME280;22407;42.820;23.374;2024-03-06T05:16:25;95641.84;;;0.58;100.00
31873;BME280;22407;42.820;23.374;2024-03-06T05:18:52;95640.50;;;0.77;100.00
31873;BME280;22407;42.820;23.374;2024-03-06T05:21:18;95639.78;;;1.02;100.00
31873;BME280;22407;42.820;23.374;2024-03-06T05:23:43;95627.56;;;1.06;99.75
31873;BME280;22407;42.820;23.374;2024-03-06T05:26:09;95631.84;;;1.07;99.43
31873;BME280;22407;42.820;23.374;2024-03-06T05:28:34;95631.34;;;1.32;99.76
31873;BME280;22407;42.820;23.374;2024-03-06T05:31:00;95624.81;;;1.44;99.25
31873;BME280;22407;42.820;23.374;2024-03-06T05:33:29;95633.50;;;1.61;98.66
31873;BME280;22407;42.820;23.374;2024-03-06T05:35:55;95633.47;;;1.56;98.38
31873;BME280;22407;42.820;23.374;2024-03-06T05:38:21;95651.09;;;1.57;98.54
31873;BME280;22407;42.820;23.374;2024-03-06T05:40:47;95647.50;;;1.73;98.24
31873;BME280;22407;42.820;23.374;2024-03-06T05:43:13;95660.19;;;1.87;98.11
31873;BME280;22407;42.820;23.374;2024-03-06T05:45:38;95657.28;;;1.89;98.23
31873;BME280;22407;42.820;23.374;2024-03-06T05:48:04;95668.50;;;1.91;98.18
31873;BME280;22407;42.820;23.374;2024-03-06T05:50:30;95664.31;;;2.00;98.35
31873;BME280;22407;42.820;23.374;2024-03-06T05:52:57;95665.69;;;2.02;98.65
31873;BME280;22407;42.820;23.374;2024-03-06T05:55:23;95665.97;;;2.06;99.50
31873;BME280;22407;42.820;23.374;2024-03-06T05:57:48;95661.38;;;2.28;99.44
31873;BME280;22407;42.820;23.374;2024-03-06T06:00:15;95648.16;;;2.48;98.28
31873;BME280;22407;42.820;23.374;2024-03-06T06:02:43;95663.22;;;2.58;98.55
31873;BME280;22407;42.820;23.374;2024-03-06T06:05:10;95658.22;;;2.72;98.06
31873;BME280;22407;42.820;23.374;2024-03-06T06:07:36;95663.34;;;2.78;98.34
31873;BME280;22407;42.820;23.374;2024-03-06T06:10:04;95665.28;;;2.93;98.48
31873;BME280;22407;42.820;23.374;2024-03-06T06:12:33;95666.97;;;3.04;98.29
31873;BME280;22407;42.820;23.374;2024-03-06T06:14:59;95670.75;;;3.18;98.05
31873;BME280;22407;42.820;23.374;2024-03-06T06:17:27;95669.97;;;3.17;98.55
31873;BME280;22407;42.820;23.374;2024-03-06T06:19:53;95669.78;;;3.38;98.28
31873;BME280;22407;42.820;23.374;2024-03-06T06:22:18;95668.44;;;3.41;98.46
31873;BME280;22407;42.820;23.374;2024-03-06T06:24:47;95668.22;;;3.47;97.45
31873;BME280;22407;42.820;23.374;2024-03-06T06:27:13;95664.47;;;3.43;98.05
31873;BME280;22407;42.820;23.374;2024-03-06T06:29:39;95660.88;;;3.18;99.35
31873;BME280;22407;42.820;23.374;2024-03-06T06:32:04;95666.81;;;3.30;99.07
31873;BME280;22407;42.820;23.374;2024-03-06T06:34:30;95669.34;;;3.61;99.18
31873;BME280;22407;42.820;23.374;2024-03-06T06:36:57;95672.91;;;3.87;98.19
31873;BME280;22407;42.820;23.374;2024-03-06T06:39:22;95677.13;;;3.73;97.74
31873;BME280;22407;42.820;23.374;2024-03-06T06:41:48;95673.66;;;3.72;98.26
31873;BME280;22407;42.820;23.374;2024-03-06T06:44:14;95671.31;;;3.96;97.23
31873;BME280;22407;42.820;23.374;2024-03-06T06:46:40;95670.75;;;3.89;96.86
31873;BME280;22407;42.820;23.374;2024-03-06T06:49:08;95676.16;;;4.14;97.04
31873;BME280;22407;42.820;23.374;2024-03-06T06:51:34;95674.31;;;4.34;94.96
31873;BME280;22407;42.820;23.374;2024-03-06T06:54:01;95673.50;;;4.53;94.50
31873;BME280;22407;42.820;23.374;2024-03-06T06:56:27;95668.16;;;4.58;93.91
31873;BME280;22407;42.820;23.374;2024-03-06T06:58:52;95676.44;;;4.77;92.86
31873;BME280;22407;42.820;23.374;2024-03-06T07:01:18;95672.97;;;4.56;93.56
31873;BME280;22407;42.820;23.374;2024-03-06T07:03:45;95673.22;;;4.70;94.42
31873;BME280;22407;42.820;23.374;2024-03-06T07:06:10;95667.00;;;4.99;93.64
31873;BME280;22407;42.820;23.374;2024-03-06T07:08:37;95663.53;;;4.99;92.67
31873;BME280;22407;42.820;23.374;2024-03-06T07:11:03;95660.56;;;5.05;92.94
31873;BME280;22407;42.820;23.374;2024-03-06T07:13:28;95665.88;;;5.25;92.96
31873;BME280;22407;42.820;23.374;2024-03-06T07:15:54;95666.63;;;5.40;92.42
31873;BME280;22407;42.820;23.374;2024-03-06T07:18:19;95663.19;;;5.20;93.87
31873;BME280;22407;42.820;23.374;2024-03-06T07:20:45;95678.38;;;5.54;92.21
31873;BME280;22407;42.820;23.374;2024-03-06T07:23:11;95679.41;;;5.73;90.17
31873;BME280;22407;42.820;23.374;2024-03-06T07:25:36;95676.69;;;5.78;90.94
31873;BME280;22407;42.820;23.374;2024-03-06T07:28:07;95671.03;;;5.85;89.83
31873;BME280;22407;42.820;23.374;2024-03-06T07:30:34;95669.38;;;5.94;89.83
31873;BME280;22407;42.820;23.374;2024-03-06T07:33:00;95666.66;;;5.98;88.79
31873;BME280;22407;42.820;23.374;2024-03-06T07:35:25;95673.00;;;6.12;88.41
31873;BME280;22407;42.820;23.374;2024-03-06T07:37:51;95668.06;;;6.29;88.11
31873;BME280;22407;42.820;23.374;2024-03-06T07:40:17;95668.19;;;6.48;87.00
31873;BME280;22407;42.820;23.374;2024-03-06T07:42:42;95665.28;;;6.44;86.77
31873;BME280;22407;42.820;23.374;2024-03-06T07:45:08;95667.09;;;6.54;87.23
31873;BME280;22407;42.820;23.374;2024-03-06T07:47:34;95666.00;;;6.88;85.13
31873;BME280;22407;42.820;23.374;2024-03-06T07:50:00;95653.53;;;6.97;85.08
31873;BME280;22407;42.820;23.374;2024-03-06T07:52:25;95663.88;;;7.37;85.20
31873;BME280;22407;42.820;23.374;2024-03-06T07:54:51;95659.03;;;7.57;81.96
31873;BME280;22407;42.820;23.374;2024-03-06T07:57:16;95656.34;;;7.99;79.63
31873;BME280;22407;42.820;23.374;2024-03-06T07:59:43;95653.13;;;8.20;78.27
31873;BME280;22407;42.820;23.374;2024-03-06T08:02:09;95662.44;;;8.46;76.37
31873;BME280;22407;42.820;23.374;2024-03-06T08:04:34;95664.63;;;8.26;77.24
31873;BME280;22407;42.820;23.374;2024-03-06T08:07:00;95664.31;;;8.64;75.88
31873;BME280;22407;42.820;23.374;2024-03-06T08:09:26;95667.53;;;8.98;75.21
31873;BME280;22407;42.820;23.374;2024-03-06T08:11:54;95669.41;;;8.65;75.19
31873;BME280;22407;42.820;23.374;2024-03-06T08:14:20;95672.00;;;8.57;76.33
31873;BME280;22407;42.820;23.374;2024-03-06T08:16:45;95665.66;;;9.12;74.10
31873;BME280;22407;42.820;23.374;2024-03-06T08:19:11;95672.84;;;9.61;72.43
31873;BME280;22407;42.820;23.374;2024-03-06T08:21:40;95669.31;;;9.88;70.00
31873;BME280;22407;42.820;23.374;2024-03-06T08:24:06;95655.91;;;9.96;68.30
31873;BME280;22407;42.820;23.374;2024-03-06T08:26:32;95672.50;;;9.49;71.27
31873;BME280;22407;42.820;23.374;2024-03-06T08:28:57;95668.34;;;9.97;69.03
31873;BME280;22407;42.820;23.374;2024-03-06T08:31:23;95664.88;;;10.32;66.48
31873;BME280;22407;42.820;23.374;2024-03-06T08:33:48;95665.16;;;10.44;65.78
31873;BME280;22407;42.820;23.374;2024-03-06T08:36:14;95667.59;;;10.67;65.33
31873;BME280;22407;42.820;23.374;2024-03-06T08:38:39;95662.66;;;10.69;64.42
31873;BME280;22407;42.820;23.374;2024-03-06T08:41:06;95657.81;;;11.02;63.93
31873;BME280;22407;42.820;23.374;2024-03-06T08:43:34;95665.75;;;11.28;64.86
31873;BME280;22407;42.820;23.374;2024-03-06T08:46:01;95655.81;;;11.37;62.42
31873;BME280;22407;42.820;23.374;2024-03-06T08:48:26;95657.56;;;11.72;62.10
31873;BME280;22407;42.820;23.374;2024-03-06T08:50:52;95663.44;;;12.13;60.46
31873;BME280;22407;42.820;23.374;2024-03-06T08:53:17;95659.16;;;12.29;60.02
31873;BME280;22407;42.820;23.374;2024-03-06T08:55:43;95658.97;;;11.61;61.65
31873;BME280;22407;42.820;23.374;2024-03-06T08:58:08;95654.66;;;11.60;61.20
31873;BME280;22407;42.820;23.374;2024-03-06T09:00:34;95662.34;;;11.45;62.82
31873;BME280;22407;42.820;23.374;2024-03-06T09:03:01;95661.94;;;11.90;62.39
31873;BME280;22407;42.820;23.374;2024-03-06T09:05:27;95653.91;;;12.58;59.58
31873;BME280;22407;42.820;23.374;2024-03-06T09:07:52;95650.88;;;13.18;58.32
31873;BME280;22407;42.820;23.374;2024-03-06T09:10:18;95644.41;;;13.48;56.70
31873;BME280;22407;42.820;23.374;2024-03-06T09:12:46;95654.56;;;13.31;56.37
31873;BME280;22407;42.820;23.374;2024-03-06T09:15:12;95648.16;;;13.18;54.42
31873;BME280;22407;42.820;23.374;2024-03-06T09:17:38;95655.28;;;13.48;54.69
31873;BME280;22407;42.820;23.374;2024-03-06T09:20:05;95651.00;;;13.47;53.88
31873;BME280;22407;42.820;23.374;2024-03-06T09:22:41;95644.56;;;13.89;54.46
31873;BME280;22407;42.820;23.374;2024-03-06T09:25:07;95641.75;;;14.14;51.74
31873;BME280;22407;42.820;23.374;2024-03-06T09:27:33;95641.72;;;14.43;52.25
31873;BME280;22407;42.820;23.374;2024-03-06T09:29:59;95640.47;;;14.41;51.06
31873;BME280;22407;42.820;23.374;2024-03-06T09:32:25;95631.88;;;14.01;51.75
31873;BME280;22407;42.820;23.374;2024-03-06T09:34:52;95633.34;;;14.28;53.06
31873;BME280;22407;42.820;23.374;2024-03-06T09:37:18;95633.34;;;14.28;54.49
31873;BME280;22407;42.820;23.374;2024-03-06T09:39:43;95632.56;;;14.88;50.70
31873;BME280;22407;42.820;23.374;2024-03-06T09:42:14;95635.84;;;15.35;49.40
31873;BME280;22407;42.820;23.374;2024-03-06T09:44:40;95634.88;;;15.51;47.43
31873;BME280;22407;42.820;23.374;2024-03-06T09:47:08;95626.03;;;15.22;47.70
31873;BME280;22407;42.820;23.374;2024-03-06T09:49:37;95612.78;;;15.32;47.36
31873;BME280;22407;42.820;23.374;2024-03-06T09:52:03;95625.56;;;15.52;48.51
31873;BME280;22407;42.820;23.374;2024-03-06T09:54:29;95614.94;;;15.95;47.21
31873;BME280;22407;42.820;23.374;2024-03-06T09:56:55;95619.41;;;15.43;45.96
31873;BME280;22407;42.820;23.374;2024-03-06T09:59:23;95610.28;;;15.27;48.82
31873;BME280;22407;42.820;23.374;2024-03-06T10:01:55;95613.03;;;15.39;46.49
31873;BME280;22407;42.820;23.374;2024-03-06T10:04:22;95610.66;;;15.17;47.69
31873;BME280;22407;42.820;23.374;2024-03-06T10:06:49;95606.72;;;15.71;45.45
31873;BME280;22407;42.820;23.374;2024-03-06T10:09:19;95604.00;;;15.83;45.53
31873;BME280;22407;42.820;23.374;2024-03-06T10:11:45;95600.94;;;16.08;45.90
31873;BME280;22407;42.820;23.374;2024-03-06T10:14:11;95600.13;;;16.55;44.40
31873;BME280;22407;42.820;23.374;2024-03-06T10:16:37;95593.59;;;16.72;43.33
31873;BME280;22407;42.820;23.374;2024-03-06T10:19:16;95596.31;;;16.72;44.13
31873;BME280;22407;42.820;23.374;2024-03-06T10:21:47;95590.00;;;16.20;43.09
31873;BME280;22407;42.820;23.374;2024-03-06T10:26:54;95583.59;;;16.91;43.50
31873;BME280;22407;42.820;23.374;2024-03-06T10:29:21;95575.97;;;17.12;41.28
31873;BME280;22407;42.820;23.374;2024-03-06T10:31:58;95572.00;;;17.37;42.31
31873;BME280;22407;42.820;23.374;2024-03-06T10:34:25;95576.72;;;17.24;41.70
31873;BME280;22407;42.820;23.374;2024-03-06T10:36:55;95575.97;;;16.85;41.77
31873;BME280;22407;42.820;23.374;2024-03-06T10:39:22;95567.13;;;16.25;42.60
31873;BME280;22407;42.820;23.374;2024-03-06T10:41:52;95568.53;;;15.83;43.89
31873;BME280;22407;42.820;23.374;2024-03-06T10:44:21;95568.28;;;15.88;44.62
31873;BME280;22407;42.820;23.374;2024-03-06T10:49:19;95554.13;;;16.45;41.94
31873;BME280;22407;42.820;23.374;2024-03-06T10:51:46;95553.56;;;17.07;42.21
31873;BME280;22407;42.820;23.374;2024-03-06T10:54:13;95559.13;;;17.10;41.39
31873;BME280;22407;42.820;23.374;2024-03-06T10:56:42;95553.59;;;17.22;41.85
31873;BME280;22407;42.820;23.374;2024-03-06T10:59:11;95541.91;;;17.52;38.85
31873;BME280;22407;42.820;23.374;2024-03-06T11:01:39;95538.09;;;16.71;40.06
31873;BME280;22407;42.820;23.374;2024-03-06T11:04:05;95538.91;;;16.21;41.67
31873;BME280;22407;42.820;23.374;2024-03-06T11:06:31;95529.84;;;17.11;40.52
31873;BME280;22407;42.820;23.374;2024-03-06T11:08:57;95526.84;;;16.88;40.16
31873;BME280;22407;42.820;23.374;2024-03-06T11:11:24;95515.34;;;17.84;38.26
31873;BME280;22407;42.820;23.374;2024-03-06T11:13:59;95523.88;;;16.93;37.89
31873;BME280;22407;42.820;23.374;2024-03-06T11:16:29;95510.56;;;17.81;38.24
31873;BME280;22407;42.820;23.374;2024-03-06T11:19:08;95511.59;;;17.92;36.74
31873;BME280;22407;42.820;23.374;2024-03-06T11:21:34;95521.59;;;16.95;39.44
31873;BME280;22407;42.820;23.374;2024-03-06T11:26:43;95510.84;;;17.29;40.20
31873;BME280;22407;42.820;23.374;2024-03-06T11:29:08;95515.75;;;16.81;39.11
31873;BME280;22407;42.820;23.374;2024-03-06T11:31:34;95517.56;;;17.20;39.35
31873;BME280;22407;42.820;23.374;2024-03-06T11:34:04;95505.91;;;16.65;39.90
31873;BME280;22407;42.820;23.374;2024-03-06T11:36:29;95508.41;;;16.19;40.43
31873;BME280;22407;42.820;23.374;2024-03-06T11:39:08;95506.97;;;14.81;46.93
31873;BME280;22407;42.820;23.374;2024-03-06T11:44:12;95513.69;;;13.82;50.83
31873;BME280;22407;42.820;23.374;2024-03-06T11:47:03;95500.06;;;13.90;51.43
31873;BME280;22407;42.820;23.374;2024-03-06T11:49:30;95522.63;;;13.25;51.36
31873;BME280;22407;42.820;23.374;2024-03-06T11:52:08;95513.34;;;13.63;51.30
31873;BME280;22407;42.820;23.374;2024-03-06T11:54:35;95506.06;;;13.75;50.79
31873;BME280;22407;42.820;23.374;2024-03-06T11:57:03;95509.75;;;13.71;48.92
31873;BME280;22407;42.820;23.374;2024-03-06T11:59:29;95509.16;;;13.37;50.84
31873;BME280;22407;42.820;23.374;2024-03-06T12:01:56;95500.09;;;13.24;56.77
31873;BME280;22407;42.820;23.374;2024-03-06T12:04:22;95502.56;;;13.09;58.17
31873;BME280;22407;42.820;23.374;2024-03-06T12:06:49;95507.03;;;12.17;63.69
31873;BME280;22407;42.820;23.374;2024-03-06T12:09:15;95507.03;;;12.17;61.61
31873;BME280;22407;42.820;23.374;2024-03-06T12:11:41;95508.41;;;12.65;60.88
31873;BME280;22407;42.820;23.374;2024-03-06T12:14:20;95499.03;;;12.46;60.48
31873;BME280;22407;42.820;23.374;2024-03-06T12:16:56;95501.91;;;12.24;61.11
31873;BME280;22407;42.820;23.374;2024-03-06T12:19:22;95488.19;;;12.37;63.61
31873;BME280;22407;42.820;23.374;2024-03-06T12:21:51;95500.09;;;12.62;58.75
31873;BME280;22407;42.820;23.374;2024-03-06T12:24:17;95488.13;;;12.54;58.30
31873;BME280;22407;42.820;23.374;2024-03-06T12:26:46;95489.09;;;12.58;59.92
31873;BME280;22407;42.820;23.374;2024-03-06T12:29:17;95473.72;;;12.71;59.39
31873;BME280;22407;42.820;23.374;2024-03-06T12:31:44;95479.31;;;12.91;59.57
31873;BME280;22407;42.820;23.374;2024-03-06T12:34:14;95475.69;;;13.94;53.33
31873;BME280;22407;42.820;23.374;2024-03-06T12:36:42;95462.94;;;14.06;50.38
31873;BME280;22407;42.820;23.374;2024-03-06T12:39:07;95468.81;;;14.17;50.82
31873;BME280;22407;42.820;23.374;2024-03-06T12:41:41;95465.31;;;14.08;51.13
31873;BME280;22407;42.820;23.374;2024-03-06T12:44:07;95465.78;;;14.51;48.48
31873;BME280;22407;42.820;23.374;2024-03-06T12:46:33;95466.41;;;14.68;46.67
31873;BME280;22407;42.820;23.374;2024-03-06T12:48:59;95457.69;;;14.42;46.48
31873;BME280;22407;42.820;23.374;2024-03-06T12:51:24;95470.38;;;14.70;47.02
31873;BME280;22407;42.820;23.374;2024-03-06T12:53:50;95454.06;;;14.82;45.66
31873;BME280;22407;42.820;23.374;2024-03-06T12:56:17;95469.84;;;14.89;45.90
31873;BME280;22407;42.820;23.374;2024-03-06T12:58:45;95465.31;;;14.81;45.40
31873;BME280;22407;42.820;23.374;2024-03-06T13:01:10;95466.72;;;15.11;44.99
31873;BME280;22407;42.820;23.374;2024-03-06T13:03:36;95463.75;;;14.60;45.28